Time,TemperatureF,DewpointF,PressureIn,WindDirection,WindDirectionDegrees,WindSpeedMPH,WindSpeedGustMPH,Humidity,HourlyPrecipIn,Conditions,Clouds,dailyrainin,SolarRadiationWatts/m^2,SoftwareType,DateUTC
2013-03-09 07:50:00,25.3,20.3,30.23,West,270,1.0,2.0,81,0.00,,CLR,0.00,53.00,VWS V14.01,2013-03-09 12:50:00,
2013-03-09 08:11:00,26.6,20.4,30.24,West,267,0.0,1.0,77,0.00,,CLR,0.00,54.00,VWS V14.01,2013-03-09 13:11:00,
2013-03-09 08:21:00,27.5,20.9,30.24,West,267,0.0,2.0,76,0.00,,CLR,0.00,44.00,VWS V14.01,2013-03-09 13:21:00,
2013-03-09 08:31:00,28.7,21.1,30.23,West,267,0.0,2.0,73,0.00,,CLR,0.00,39.00,VWS V14.01,2013-03-09 13:31:00,
2013-03-09 08:41:00,29.4,21.2,30.23,West,267,1.0,2.0,71,0.00,,CLR,0.00,40.00,VWS V14.01,2013-03-09 13:41:00,
2013-03-09 08:51:00,30.3,22.4,30.23,West,267,1.0,2.0,72,0.00,,CLR,0.00,40.00,VWS V14.01,2013-03-09 13:51:00,
2013-03-09 09:01:00,31.5,22.5,30.23,West,267,0.0,2.0,69,0.00,,CLR,0.00,40.00,VWS V14.01,2013-03-09 14:01:00,
2013-03-09 09:11:00,33.4,21.0,30.23,West,267,0.0,0.0,60,0.00,,CLR,0.00,46.00,VWS V14.01,2013-03-09 14:11:00,
2013-03-09 09:21:00,34.9,20.4,30.23,West,267,0.0,0.0,55,0.00,,CLR,0.00,165.00,VWS V14.01,2013-03-09 14:21:00,
2013-03-09 09:31:00,36.3,20.4,30.23,West,267,2.0,3.0,52,0.00,,CLR,0.00,225.00,VWS V14.01,2013-03-09 14:31:00,
2013-03-09 09:41:00,37.5,21.0,30.23,West,267,2.0,3.0,51,0.00,,CLR,0.00,156.00,VWS V14.01,2013-03-09 14:41:00,
2013-03-09 09:51:00,38.3,21.3,30.22,West,267,0.0,3.0,50,0.00,,CLR,0.00,253.00,VWS V14.01,2013-03-09 14:51:00,
2013-03-09 10:01:00,39.5,21.0,30.22,West,267,1.0,2.0,47,0.00,,CLR,0.00,181.00,VWS V14.01,2013-03-09 15:01:00,
2013-03-09 10:11:00,41.1,21.4,30.22,West,267,0.0,2.0,45,0.00,,CLR,0.00,346.00,VWS V14.01,2013-03-09 15:11:00,
2013-03-09 10:21:00,42.1,21.2,30.23,West,267,1.0,3.0,43,0.00,,CLR,0.00,659.00,VWS V14.01,2013-03-09 15:21:00,
2013-03-09 10:31:00,43.2,21.1,30.22,West,267,0.0,2.0,41,0.00,,CLR,0.00,675.00,VWS V14.01,2013-03-09 15:31:00,
2013-03-09 10:41:00,44.2,20.2,30.22,West,267,0.0,2.0,38,0.00,,CLR,0.00,693.00,VWS V14.01,2013-03-09 15:41:00,
2013-03-09 10:51:00,45.7,19.6,30.22,West,267,0.0,2.0,35,0.00,,CLR,0.00,703.00,VWS V14.01,2013-03-09 15:51:00,
2013-03-09 11:01:00,46.5,19.0,30.22,West,267,1.0,3.0,33,0.00,,CLR,0.00,710.00,VWS V14.01,2013-03-09 16:01:00,
2013-03-09 11:11:00,47.7,19.3,30.22,West,267,0.0,3.0,32,0.00,,CLR,0.00,715.00,VWS V14.01,2013-03-09 16:11:00,
2013-03-09 11:21:00,49.4,16.8,30.22,West,267,1.0,2.0,27,0.00,,CLR,0.00,722.00,VWS V14.01,2013-03-09 16:21:00,
2013-03-09 11:31:00,50.5,16.0,30.22,West,267,0.0,1.0,25,0.00,,CLR,0.00,726.00,VWS V14.01,2013-03-09 16:31:00,
2013-03-09 11:41:00,52.2,14.5,30.22,West,267,2.0,2.0,22,0.00,,CLR,0.00,729.00,VWS V14.01,2013-03-09 16:41:00,
2013-03-09 11:51:00,51.7,15.1,30.22,West,267,0.0,2.0,23,0.00,,CLR,0.00,726.00,VWS V14.01,2013-03-09 16:51:00,
2013-03-09 12:01:00,52.5,14.8,30.21,West,267,0.0,0.0,22,0.00,,CLR,0.00,726.00,VWS V14.01,2013-03-09 17:01:00,
2013-03-09 12:11:00,53.2,9.5,30.21,West,267,2.0,3.0,17,0.00,,CLR,0.00,726.00,VWS V14.01,2013-03-09 17:11:00,
2013-03-09 12:21:00,52.6,14.9,30.21,WSW,258,5.0,6.0,22,0.00,,CLR,0.00,719.00,VWS V14.01,2013-03-09 17:21:00,
2013-03-09 12:31:00,52.5,10.2,30.21,West,262,5.0,5.0,18,0.00,,CLR,0.00,708.00,VWS V14.01,2013-03-09 17:31:00,
2013-03-09 12:41:00,52.8,12.9,30.21,West,262,0.0,5.0,20,0.00,,CLR,0.00,701.00,VWS V14.01,2013-03-09 17:41:00,
2013-03-09 12:51:00,52.5,15.8,30.20,West,266,5.0,7.0,23,0.00,,CLR,0.00,691.00,VWS V14.01,2013-03-09 17:51:00,
2013-03-09 13:01:00,53.6,9.9,30.20,WSW,252,4.0,7.0,17,0.00,,CLR,0.00,682.00,VWS V14.01,2013-03-09 18:01:00,
2013-03-09 13:11:00,54.1,11.6,30.20,WSW,258,4.0,6.0,18,0.00,,CLR,0.00,622.00,VWS V14.01,2013-03-09 18:11:00,
2013-03-09 13:21:00,54.2,12.9,30.20,West,259,4.0,5.0,19,0.00,,CLR,0.00,445.00,VWS V14.01,2013-03-09 18:21:00,
2013-03-09 13:31:00,54.7,14.4,30.19,West,272,5.0,6.0,20,0.00,,CLR,0.00,494.00,VWS V14.01,2013-03-09 18:31:00,
2013-03-09 13:41:00,54.1,12.8,30.19,West,271,5.0,7.0,19,0.00,,CLR,0.00,529.00,VWS V14.01,2013-03-09 18:41:00,
2013-03-09 13:51:00,54.5,14.3,30.19,West,259,5.0,7.0,20,0.00,,CLR,0.00,578.00,VWS V14.01,2013-03-09 18:51:00,
2013-03-09 14:01:00,54.2,12.9,30.19,West,281,0.0,6.0,19,0.00,,CLR,0.00,580.00,VWS V14.01,2013-03-09 19:01:00,
2013-03-09 14:11:00,55.3,12.5,30.19,West,281,0.0,2.0,18,0.00,,CLR,0.00,554.00,VWS V14.01,2013-03-09 19:11:00,
2013-03-09 14:21:00,55.3,9.9,30.19,West,281,0.0,3.0,16,0.00,,CLR,0.00,520.00,VWS V14.01,2013-03-09 19:21:00,
2013-03-09 14:32:00,55.1,13.6,30.19,West,281,0.0,5.0,19,0.00,,CLR,0.00,450.00,VWS V14.01,2013-03-09 19:32:00,
2013-03-09 14:41:00,55.6,12.8,30.19,West,281,0.0,1.0,18,0.00,,CLR,0.00,385.00,VWS V14.01,2013-03-09 19:41:00,
2013-03-09 14:52:00,55.6,14.0,30.18,NNE,32,3.0,4.0,19,0.00,,CLR,0.00,376.00,VWS V14.01,2013-03-09 19:52:00,
2013-03-09 15:01:00,53.6,11.1,30.19,East,79,0.0,3.0,18,0.00,,CLR,0.00,404.00,VWS V14.01,2013-03-09 20:01:00,
2013-03-09 15:12:00,53.2,13.2,30.19,ENE,77,0.0,6.0,20,0.00,,CLR,0.00,408.00,VWS V14.01,2013-03-09 20:12:00,
2013-03-09 15:21:00,53.6,13.5,30.19,East,90,3.0,4.0,20,0.00,,CLR,0.00,381.00,VWS V14.01,2013-03-09 20:21:00,
2013-03-09 15:31:00,53.2,15.4,30.19,ENE,75,0.0,5.0,22,0.00,,CLR,0.00,352.00,VWS V14.01,2013-03-09 20:31:00,
2013-03-09 15:41:00,53.5,13.4,30.19,ENE,68,2.0,6.0,20,0.00,,CLR,0.00,316.00,VWS V14.01,2013-03-09 20:41:00,
2013-03-09 15:51:00,53.1,11.9,30.19,ENE,57,0.0,6.0,19,0.00,,CLR,0.00,272.00,VWS V14.01,2013-03-09 20:51:00,
2013-03-09 16:01:00,53.1,11.9,30.20,ESE,110,0.0,5.0,19,0.00,,CLR,0.00,229.00,VWS V14.01,2013-03-09 21:01:00,
2013-03-09 16:11:00,52.3,11.3,30.20,ESE,113,0.0,4.0,19,0.00,,CLR,0.00,118.00,VWS V14.01,2013-03-09 21:11:00,
2013-03-09 16:21:00,50.4,10.9,30.20,East,92,0.0,7.0,20,0.00,,CLR,0.00,121.00,VWS V14.01,2013-03-09 21:21:00,
2013-03-09 16:31:00,50.4,11.9,30.21,East,94,0.0,3.0,21,0.00,,CLR,0.00,104.00,VWS V14.01,2013-03-09 21:31:00,
2013-03-09 16:41:00,51.0,9.0,30.21,East,94,0.0,2.0,18,0.00,,CLR,0.00,37.00,VWS V14.01,2013-03-09 21:41:00,
2013-03-09 16:52:00,49.2,10.9,30.21,East,94,2.0,3.0,21,0.00,,CLR,0.00,46.00,VWS V14.01,2013-03-09 21:52:00,
2013-03-09 17:01:00,48.8,13.6,30.22,East,86,0.0,3.0,24,0.00,,CLR,0.00,30.00,VWS V14.01,2013-03-09 22:01:00,
2013-03-09 17:11:00,47.3,15.9,30.22,East,86,0.0,1.0,28,0.00,,CLR,0.00,25.00,VWS V14.01,2013-03-09 22:11:00,
2013-03-09 17:21:00,45.5,11.7,30.23,East,86,0.0,2.0,25,0.00,,CLR,0.00,19.00,VWS V14.01,2013-03-09 22:21:00,
2013-03-09 17:31:00,44.3,17.0,30.23,East,86,0.0,0.0,33,0.00,,CLR,0.00,12.00,VWS V14.01,2013-03-09 22:31:00,
2013-03-09 17:41:00,43.3,14.7,30.23,East,86,0.0,0.0,31,0.00,,CLR,0.00,5.00,VWS V14.01,2013-03-09 22:41:00,
2013-03-09 17:51:00,42.5,16.1,30.24,East,86,0.0,0.0,34,0.00,,CLR,0.00,0.00,VWS V14.01,2013-03-09 22:51:00,
2013-03-09 18:02:00,41.6,14.6,30.25,East,86,0.0,0.0,33,0.00,,CLR,0.00,0.00,VWS V14.01,2013-03-09 23:02:00,
2013-03-09 18:11:00,40.9,13.3,30.25,East,86,0.0,0.0,32,0.00,,CLR,0.00,0.00,VWS V14.01,2013-03-09 23:11:00,
2013-03-09 18:21:00,40.2,13.4,30.26,East,86,0.0,0.0,33,0.00,,CLR,0.00,0.00,VWS V14.01,2013-03-09 23:21:00,
2013-03-09 18:31:00,40.3,17.3,30.26,East,86,2.0,2.0,39,0.00,,CLR,0.00,0.00,VWS V14.01,2013-03-09 23:31:00,
2013-03-09 18:41:00,39.8,18.0,30.26,East,85,0.0,4.0,41,0.00,,CLR,0.00,0.00,VWS V14.01,2013-03-09 23:41:00,
2013-03-09 18:51:00,38.9,16.6,30.27,ENE,57,4.0,4.0,40,0.00,,CLR,0.00,0.00,VWS V14.01,2013-03-09 23:51:00,
2013-03-09 19:01:00,38.9,17.8,30.28,ENE,57,3.0,4.0,42,0.00,,CLR,0.00,0.00,VWS V14.01,2013-03-10 00:01:00,
2013-03-09 19:11:00,38.0,17.0,30.28,ENE,58,4.0,4.0,42,0.00,,CLR,0.00,0.00,VWS V14.01,2013-03-10 00:11:00,
2013-03-09 19:21:00,36.6,20.6,30.28,ENE,58,0.0,4.0,52,0.00,,CLR,0.00,0.00,VWS V14.01,2013-03-10 00:21:00,
2013-03-09 19:31:00,35.8,20.8,30.28,ENE,58,0.0,0.0,54,0.00,,CLR,0.00,0.00,VWS V14.01,2013-03-10 00:31:00,
2013-03-09 19:41:00,34.9,22.0,30.28,ENE,58,0.0,0.0,59,0.00,,CLR,0.00,0.00,VWS V14.01,2013-03-10 00:41:00,
2013-03-09 19:51:00,34.0,20.4,30.28,ENE,58,0.0,0.0,57,0.00,,CLR,0.00,0.00,VWS V14.01,2013-03-10 00:51:00,
2013-03-09 20:12:00,33.1,20.4,30.29,ENE,58,0.0,0.0,59,0.00,,CLR,0.00,0.00,VWS V14.01,2013-03-10 01:12:00,
2013-03-09 20:21:00,33.5,22.6,30.29,ENE,58,0.0,0.0,64,0.00,,CLR,0.00,0.00,VWS V14.01,2013-03-10 01:21:00,
2013-03-09 20:31:00,34.1,24.3,30.30,ENE,58,0.0,0.0,67,0.00,,CLR,0.00,0.00,VWS V14.01,2013-03-10 01:31:00,
2013-03-09 20:41:00,33.7,24.6,30.30,ENE,58,0.0,0.0,69,0.00,,CLR,0.00,0.00,VWS V14.01,2013-03-10 01:41:00,
2013-03-09 20:51:00,32.5,24.2,30.31,ENE,58,0.0,0.0,71,0.00,,CLR,0.00,0.00,VWS V14.01,2013-03-10 01:51:00,
2013-03-09 21:02:00,32.7,25.0,30.32,ENE,58,0.0,0.0,73,0.00,,CLR,0.00,0.00,VWS V14.01,2013-03-10 02:02:00,
2013-03-09 21:11:00,32.4,26.0,30.32,ENE,58,0.0,2.0,77,0.00,,CLR,0.00,0.00,VWS V14.01,2013-03-10 02:11:00,
2013-03-09 21:21:00,32.2,25.8,30.32,ENE,58,0.0,2.0,77,0.00,,CLR,0.00,0.00,VWS V14.01,2013-03-10 02:21:00,
2013-03-09 21:31:00,31.8,25.4,30.32,ENE,58,0.0,0.0,77,0.00,,CLR,0.00,0.00,VWS V14.01,2013-03-10 02:31:00,
2013-03-09 21:41:00,31.2,25.5,30.32,ENE,58,0.0,0.0,79,0.00,,CLR,0.00,0.00,VWS V14.01,2013-03-10 02:41:00,
2013-03-09 21:51:00,31.2,25.1,30.32,ENE,58,0.0,0.0,78,0.00,,CLR,0.00,0.00,VWS V14.01,2013-03-10 02:51:00,
2013-03-09 22:01:00,30.3,25.2,30.32,ENE,58,0.0,0.0,81,0.00,,CLR,0.00,0.00,VWS V14.01,2013-03-10 03:01:00,
2013-03-09 22:11:00,29.7,24.6,30.32,ENE,58,0.0,0.0,81,0.00,,CLR,0.00,0.00,VWS V14.01,2013-03-10 03:11:00,
2013-03-09 22:21:00,29.8,25.0,30.32,ENE,58,0.0,1.0,82,0.00,,CLR,0.00,0.00,VWS V14.01,2013-03-10 03:21:00,
2013-03-09 22:31:00,29.8,25.0,30.33,ENE,58,0.0,2.0,82,0.00,,CLR,0.00,0.00,VWS V14.01,2013-03-10 03:31:00,
2013-03-09 22:41:00,29.7,25.2,30.33,ENE,58,0.0,5.0,83,0.00,,CLR,0.00,0.00,VWS V14.01,2013-03-10 03:41:00,
2013-03-09 22:51:00,30.0,25.5,30.33,ENE,58,0.0,0.0,83,0.00,,CLR,0.00,0.00,VWS V14.01,2013-03-10 03:51:00,
2013-03-09 23:01:00,29.5,25.3,30.33,ENE,58,0.0,1.0,84,0.00,,CLR,0.00,0.00,VWS V14.01,2013-03-10 04:01:00,
2013-03-09 23:11:00,29.4,25.5,30.33,ENE,58,0.0,0.0,85,0.00,,CLR,0.00,0.00,VWS V14.01,2013-03-10 04:11:00,
2013-03-09 23:21:00,28.8,25.4,30.33,ENE,58,0.0,0.0,87,0.00,,CLR,0.00,0.00,VWS V14.01,2013-03-10 04:21:00,
2013-03-09 23:31:00,28.5,25.1,30.33,ENE,58,0.0,0.0,87,0.00,,CLR,0.00,0.00,VWS V14.01,2013-03-10 04:31:00,
2013-03-09 23:41:00,28.4,25.6,30.33,ENE,58,0.0,0.0,89,0.00,,CLR,0.00,0.00,VWS V14.01,2013-03-10 04:41:00,
2013-03-09 23:51:00,28.2,25.4,30.33,ENE,58,0.0,0.0,89,0.00,,CLR,0.00,0.00,VWS V14.01,2013-03-10 04:51:00,